sensor_id;sensor_type;location;lat;lon;timestamp;P1;durP1;ratioP1;P2;durP2;ratioP2
20593;SDS011;10455;48.732;10.266;2023-05-23T00:06:21;1.40;;;1.40;;
20593;SDS011;10455;48.732;10.266;2023-05-23T00:11:23;0.52;;;0.52;;
20593;SDS011;10455;48.732;10.266;2023-05-23T00:16:28;0.40;;;0.40;;
20593;SDS011;10455;48.732;10.266;2023-05-23T00:21:33;0.40;;;0.40;;
20593;SDS011;10455;48.732;10.266;2023-05-23T00:26:35;0.40;;;0.40;;
20593;SDS011;10455;48.732;10.266;2023-05-23T00:31:37;0.40;;;0.40;;
20593;SDS011;10455;48.732;10.266;2023-05-23T02:48:24;0.80;;;0.80;;
20593;SDS011;10455;48.732;10.266;2023-05-23T02:53:26;1.10;;;1.10;;
20593;SDS011;10455;48.732;10.266;2023-05-23T02:58:28;0.40;;;0.40;;
20593;SDS011;10455;48.732;10.266;2023-05-23T03:03:32;1.97;;;1.87;;
20593;SDS011;10455;48.732;10.266;2023-05-23T03:08:34;1.03;;;1.03;;
20593;SDS011;10455;48.732;10.266;2023-05-23T03:13:36;0.60;;;0.60;;
20593;SDS011;10455;48.732;10.266;2023-05-23T03:18:39;0.43;;;0.43;;
20593;SDS011;10455;48.732;10.266;2023-05-23T03:23:41;0.40;;;0.40;;
20593;SDS011;10455;48.732;10.266;2023-05-23T03:28:43;0.40;;;0.40;;
20593;SDS011;10455;48.732;10.266;2023-05-23T03:33:46;0.57;;;0.57;;
20593;SDS011;10455;48.732;10.266;2023-05-23T03:38:48;2.03;;;1.60;;
20593;SDS011;10455;48.732;10.266;2023-05-23T03:43:50;0.70;;;0.70;;
20593;SDS011;10455;48.732;10.266;2023-05-23T03:48:53;0.40;;;0.40;;
20593;SDS011;10455;48.732;10.266;2023-05-23T03:53:55;2.37;;;1.83;;
20593;SDS011;10455;48.732;10.266;2023-05-23T03:58:57;0.40;;;0.40;;
20593;SDS011;10455;48.732;10.266;2023-05-23T04:04:01;0.40;;;0.40;;
20593;SDS011;10455;48.732;10.266;2023-05-23T04:09:03;0.30;;;0.30;;
20593;SDS011;10455;48.732;10.266;2023-05-23T04:14:05;1.88;;;1.75;;
20593;SDS011;10455;48.732;10.266;2023-05-23T04:19:09;1.20;;;1.10;;
20593;SDS011;10455;48.732;10.266;2023-05-23T04:24:11;2.95;;;2.15;;
20593;SDS011;10455;48.732;10.266;2023-05-23T04:29:13;0.60;;;0.60;;
20593;SDS011;10455;48.732;10.266;2023-05-23T04:34:16;0.30;;;0.30;;
20593;SDS011;10455;48.732;10.266;2023-05-23T04:39:21;0.47;;;0.47;;
20593;SDS011;10455;48.732;10.266;2023-05-23T04:44:23;1.95;;;1.95;;
20593;SDS011;10455;48.732;10.266;2023-05-23T04:49:27;2.63;;;2.47;;
20593;SDS011;10455;48.732;10.266;2023-05-23T04:54:29;0.30;;;0.30;;
20593;SDS011;10455;48.732;10.266;2023-05-23T04:59:32;1.60;;;1.50;;
20593;SDS011;10455;48.732;10.266;2023-05-23T05:04:35;2.35;;;2.25;;
20593;SDS011;10455;48.732;10.266;2023-05-23T05:09:37;0.98;;;0.98;;
20593;SDS011;10455;48.732;10.266;2023-05-23T05:14:39;1.05;;;1.05;;
20593;SDS011;10455;48.732;10.266;2023-05-23T05:19:42;1.40;;;1.35;;
20593;SDS011;10455;48.732;10.266;2023-05-23T05:24:44;0.40;;;0.40;;
20593;SDS011;10455;48.732;10.266;2023-05-23T05:29:46;1.08;;;1.08;;
20593;SDS011;10455;48.732;10.266;2023-05-23T05:34:50;1.35;;;1.35;;
20593;SDS011;10455;48.732;10.266;2023-05-23T05:39:52;0.80;;;0.80;;
20593;SDS011;10455;48.732;10.266;2023-05-23T05:44:54;1.52;;;1.45;;
20593;SDS011;10455;48.732;10.266;2023-05-23T05:49:58;0.47;;;0.47;;
20593;SDS011;10455;48.732;10.266;2023-05-23T05:55:00;0.90;;;0.90;;
20593;SDS011;10455;48.732;10.266;2023-05-23T06:00:02;1.30;;;1.30;;
20593;SDS011;10455;48.732;10.266;2023-05-23T06:05:12;0.40;;;0.40;;
20593;SDS011;10455;48.732;10.266;2023-05-23T06:10:15;1.42;;;1.33;;
20593;SDS011;10455;48.732;10.266;2023-05-23T06:15:18;0.47;;;0.47;;
20593;SDS011;10455;48.732;10.266;2023-05-23T06:20:21;0.85;;;0.85;;
20593;SDS011;10455;48.732;10.266;2023-05-23T06:25:23;0.82;;;0.82;;
20593;SDS011;10455;48.732;10.266;2023-05-23T06:30:25;0.63;;;0.63;;
20593;SDS011;10455;48.732;10.266;2023-05-23T06:35:29;0.40;;;0.40;;
20593;SDS011;10455;48.732;10.266;2023-05-23T06:40:31;0.60;;;0.60;;
20593;SDS011;10455;48.732;10.266;2023-05-23T06:45:33;0.45;;;0.45;;
20593;SDS011;10455;48.732;10.266;2023-05-23T06:50:38;0.50;;;0.50;;
20593;SDS011;10455;48.732;10.266;2023-05-23T06:55:41;1.10;;;1.10;;
20593;SDS011;10455;48.732;10.266;2023-05-23T07:00:43;0.40;;;0.40;;
20593;SDS011;10455;48.732;10.266;2023-05-23T07:05:46;1.20;;;1.20;;
20593;SDS011;10455;48.732;10.266;2023-05-23T07:10:48;1.63;;;1.63;;
20593;SDS011;10455;48.732;10.266;2023-05-23T07:15:50;1.10;;;1.10;;
20593;SDS011;10455;48.732;10.266;2023-05-23T07:20:53;0.68;;;0.68;;
20593;SDS011;10455;48.732;10.266;2023-05-23T07:25:55;1.02;;;1.02;;
20593;SDS011;10455;48.732;10.266;2023-05-23T07:30:57;1.90;;;1.80;;
20593;SDS011;10455;48.732;10.266;2023-05-23T07:36:00;1.60;;;1.60;;
20593;SDS011;10455;48.732;10.266;2023-05-23T07:41:02;1.42;;;1.42;;
20593;SDS011;10455;48.732;10.266;2023-05-23T07:46:04;0.77;;;0.77;;
20593;SDS011;10455;48.732;10.266;2023-05-23T07:51:07;1.65;;;1.65;;
20593;SDS011;10455;48.732;10.266;2023-05-23T07:56:09;1.27;;;1.27;;
20593;SDS011;10455;48.732;10.266;2023-05-23T08:01:11;1.10;;;1.10;;
20593;SDS011;10455;48.732;10.266;2023-05-23T08:06:15;2.78;;;2.55;;
20593;SDS011;10455;48.732;10.266;2023-05-23T08:11:16;0.90;;;0.90;;
20593;SDS011;10455;48.732;10.266;2023-05-23T08:16:18;2.47;;;1.83;;
20593;SDS011;10455;48.732;10.266;2023-05-23T08:21:22;0.80;;;0.80;;
20593;SDS011;10455;48.732;10.266;2023-05-23T08:26:24;0.93;;;0.93;;
20593;SDS011;10455;48.732;10.266;2023-05-23T08:31:33;23.42;;;20.83;;
20593;SDS011;10455;48.732;10.266;2023-05-23T08:36:36;27.45;;;24.60;;
20593;SDS011;10455;48.732;10.266;2023-05-23T08:41:38;28.13;;;24.17;;
20593;SDS011;10455;48.732;10.266;2023-05-23T08:46:43;23.27;;;21.00;;
20593;SDS011;10455;48.732;10.266;2023-05-23T08:51:47;21.33;;;19.02;;
20593;SDS011;10455;48.732;10.266;2023-05-23T08:56:52;20.60;;;18.80;;
20593;SDS011;10455;48.732;10.266;2023-05-23T09:01:54;18.98;;;17.27;;
20593;SDS011;10455;48.732;10.266;2023-05-23T09:06:58;24.33;;;22.15;;
20593;SDS011;10455;48.732;10.266;2023-05-23T09:12:01;26.63;;;24.15;;
20593;SDS011;10455;48.732;10.266;2023-05-23T09:17:03;26.95;;;24.42;;
20593;SDS011;10455;48.732;10.266;2023-05-23T09:22:06;26.88;;;24.13;;
20593;SDS011;10455;48.732;10.266;2023-05-23T09:27:08;23.98;;;21.77;;
20593;SDS011;10455;48.732;10.266;2023-05-23T09:32:10;21.23;;;19.23;;
20593;SDS011;10455;48.732;10.266;2023-05-23T09:37:14;24.92;;;22.38;;
20593;SDS011;10455;48.732;10.266;2023-05-23T09:42:19;24.55;;;22.25;;
20593;SDS011;10455;48.732;10.266;2023-05-23T09:47:21;22.65;;;20.55;;
20593;SDS011;10455;48.732;10.266;2023-05-23T09:52:26;22.15;;;20.25;;
20593;SDS011;10455;48.732;10.266;2023-05-23T09:57:34;20.77;;;18.77;;
20593;SDS011;10455;48.732;10.266;2023-05-23T10:02:47;22.60;;;20.45;;
20593;SDS011;10455;48.732;10.266;2023-05-23T10:07:57;22.05;;;19.88;;
20593;SDS011;10455;48.732;10.266;2023-05-23T10:13:02;21.15;;;19.15;;
20593;SDS011;10455;48.732;10.266;2023-05-23T10:18:07;21.08;;;19.17;;
20593;SDS011;10455;48.732;10.266;2023-05-23T10:23:14;21.77;;;19.88;;
20593;SDS011;10455;48.732;10.266;2023-05-23T10:28:16;21.63;;;19.83;;
20593;SDS011;10455;48.732;10.266;2023-05-23T10:33:19;18.92;;;17.27;;
20593;SDS011;10455;48.732;10.266;2023-05-23T10:38:27;18.20;;;16.50;;
20593;SDS011;10455;48.732;10.266;2023-05-23T10:43:39;19.40;;;17.65;;
20593;SDS011;10455;48.732;10.266;2023-05-23T10:48:46;16.98;;;15.48;;
20593;SDS011;10455;48.732;10.266;2023-05-23T10:53:52;15.35;;;14.05;;
20593;SDS011;10455;48.732;10.266;2023-05-23T10:58:55;17.05;;;15.50;;
20593;SDS011;10455;48.732;10.266;2023-05-23T11:03:57;16.35;;;14.95;;
20593;SDS011;10455;48.732;10.266;2023-05-23T11:09:09;17.83;;;16.23;;
20593;SDS011;10455;48.732;10.266;2023-05-23T11:14:11;16.23;;;14.77;;
20593;SDS011;10455;48.732;10.266;2023-05-23T11:19:20;15.50;;;14.20;;
20593;SDS011;10455;48.732;10.266;2023-05-23T11:30:02;15.98;;;14.48;;
20593;SDS011;10455;48.732;10.266;2023-05-23T11:35:07;16.77;;;15.38;;
20593;SDS011;10455;48.732;10.266;2023-05-23T11:45:32;16.40;;;14.68;;
20593;SDS011;10455;48.732;10.266;2023-05-23T11:50:42;15.48;;;13.98;;
20593;SDS011;10455;48.732;10.266;2023-05-23T11:55:49;16.48;;;14.98;;
20593;SDS011;10455;48.732;10.266;2023-05-23T12:00:57;15.88;;;14.35;;
20593;SDS011;10455;48.732;10.266;2023-05-23T12:06:00;15.82;;;14.50;;
20593;SDS011;10455;48.732;10.266;2023-05-23T12:11:03;14.77;;;13.43;;
20593;SDS011;10455;48.732;10.266;2023-05-23T12:16:06;15.80;;;14.23;;
20593;SDS011;10455;48.732;10.266;2023-05-23T12:21:08;14.73;;;13.32;;
20593;SDS011;10455;48.732;10.266;2023-05-23T12:26:11;14.95;;;13.23;;
20593;SDS011;10455;48.732;10.266;2023-05-23T12:31:15;14.15;;;12.95;;
20593;SDS011;10455;48.732;10.266;2023-05-23T12:36:20;13.55;;;12.45;;
20593;SDS011;10455;48.732;10.266;2023-05-23T12:41:25;14.63;;;13.23;;
20593;SDS011;10455;48.732;10.266;2023-05-23T12:46:27;15.05;;;13.75;;
20593;SDS011;10455;48.732;10.266;2023-05-23T12:51:29;13.88;;;12.68;;
20593;SDS011;10455;48.732;10.266;2023-05-23T12:56:32;14.65;;;13.35;;
20593;SDS011;10455;48.732;10.266;2023-05-23T13:01:34;16.67;;;14.95;;
20593;SDS011;10455;48.732;10.266;2023-05-23T13:06:36;14.07;;;12.63;;
20593;SDS011;10455;48.732;10.266;2023-05-23T13:11:40;11.65;;;10.68;;
20593;SDS011;10455;48.732;10.266;2023-05-23T13:16:42;13.13;;;10.18;;
20593;SDS011;10455;48.732;10.266;2023-05-23T13:21:44;27.08;;;16.20;;
20593;SDS011;10455;48.732;10.266;2023-05-23T13:26:48;16.23;;;13.90;;
20593;SDS011;10455;48.732;10.266;2023-05-23T13:31:50;14.98;;;12.45;;
20593;SDS011;10455;48.732;10.266;2023-05-23T13:36:52;10.60;;;9.80;;
20593;SDS011;10455;48.732;10.266;2023-05-23T13:41:56;9.73;;;8.93;;
20593;SDS011;10455;48.732;10.266;2023-05-23T13:47:05;8.95;;;8.25;;
20593;SDS011;10455;48.732;10.266;2023-05-23T13:52:10;8.10;;;7.40;;
20593;SDS011;10455;48.732;10.266;2023-05-23T13:57:14;7.13;;;6.57;;
20593;SDS011;10455;48.732;10.266;2023-05-23T14:02:16;6.93;;;6.32;;
20593;SDS011;10455;48.732;10.266;2023-05-23T14:07:18;6.50;;;6.00;;
20593;SDS011;10455;48.732;10.266;2023-05-23T14:12:22;5.88;;;5.30;;
20593;SDS011;10455;48.732;10.266;2023-05-23T14:17:24;5.38;;;4.97;;
20593;SDS011;10455;48.732;10.266;2023-05-23T14:22:26;5.10;;;4.70;;
20593;SDS011;10455;48.732;10.266;2023-05-23T14:27:29;5.88;;;5.28;;
20593;SDS011;10455;48.732;10.266;2023-05-23T14:32:32;5.50;;;5.10;;
20593;SDS011;10455;48.732;10.266;2023-05-23T14:37:38;5.97;;;5.47;;
20593;SDS011;10455;48.732;10.266;2023-05-23T14:42:41;4.75;;;4.35;;
20593;SDS011;10455;48.732;10.266;2023-05-23T14:47:43;4.97;;;4.57;;
20593;SDS011;10455;48.732;10.266;2023-05-23T14:52:45;4.38;;;4.07;;
20593;SDS011;10455;48.732;10.266;2023-05-23T14:57:49;5.78;;;4.40;;
20593;SDS011;10455;48.732;10.266;2023-05-23T15:02:51;5.03;;;4.50;;
20593;SDS011;10455;48.732;10.266;2023-05-23T15:07:53;4.43;;;4.03;;
20593;SDS011;10455;48.732;10.266;2023-05-23T15:12:56;8.88;;;8.07;;
20593;SDS011;10455;48.732;10.266;2023-05-23T15:17:58;5.80;;;5.28;;
20593;SDS011;10455;48.732;10.266;2023-05-23T15:23:05;4.25;;;3.95;;
20593;SDS011;10455;48.732;10.266;2023-05-23T15:28:09;4.00;;;3.70;;
20593;SDS011;10455;48.732;10.266;2023-05-23T15:33:10;3.70;;;3.40;;
20593;SDS011;10455;48.732;10.266;2023-05-23T15:38:14;3.60;;;3.30;;
20593;SDS011;10455;48.732;10.266;2023-05-23T15:43:17;4.20;;;3.50;;
20593;SDS011;10455;48.732;10.266;2023-05-23T15:48:19;4.57;;;3.70;;
20593;SDS011;10455;48.732;10.266;2023-05-23T15:53:21;4.70;;;4.30;;
20593;SDS011;10455;48.732;10.266;2023-05-23T15:58:24;4.85;;;4.07;;
20593;SDS011;10455;48.732;10.266;2023-05-23T16:03:26;4.20;;;3.90;;
20593;SDS011;10455;48.732;10.266;2023-05-23T16:08:28;4.97;;;4.57;;
20593;SDS011;10455;48.732;10.266;2023-05-23T16:13:31;5.05;;;4.63;;
20593;SDS011;10455;48.732;10.266;2023-05-23T16:18:33;4.95;;;4.55;;
20593;SDS011;10455;48.732;10.266;2023-05-23T16:23:35;5.90;;;4.70;;
20593;SDS011;10455;48.732;10.266;2023-05-23T16:28:38;5.07;;;4.38;;
20593;SDS011;10455;48.732;10.266;2023-05-23T16:33:41;4.97;;;4.47;;
20593;SDS011;10455;48.732;10.266;2023-05-23T16:38:43;5.50;;;5.10;;
20593;SDS011;10455;48.732;10.266;2023-05-23T16:43:46;5.65;;;5.13;;
20593;SDS011;10455;48.732;10.266;2023-05-23T16:48:48;6.63;;;6.13;;
20593;SDS011;10455;48.732;10.266;2023-05-23T16:53:50;5.88;;;5.38;;
20593;SDS011;10455;48.732;10.266;2023-05-23T16:58:53;5.55;;;4.88;;
20593;SDS011;10455;48.732;10.266;2023-05-23T17:03:55;5.30;;;4.80;;
20593;SDS011;10455;48.732;10.266;2023-05-23T17:08:57;4.55;;;4.25;;
20593;SDS011;10455;48.732;10.266;2023-05-23T17:14:00;4.85;;;4.50;;
20593;SDS011;10455;48.732;10.266;2023-05-23T17:19:02;5.28;;;4.65;;
20593;SDS011;10455;48.732;10.266;2023-05-23T17:24:04;6.20;;;5.07;;
20593;SDS011;10455;48.732;10.266;2023-05-23T17:29:07;5.22;;;4.80;;
20593;SDS011;10455;48.732;10.266;2023-05-23T17:34:09;6.03;;;5.53;;
20593;SDS011;10455;48.732;10.266;2023-05-23T17:39:11;6.40;;;5.25;;
20593;SDS011;10455;48.732;10.266;2023-05-23T17:44:15;5.55;;;5.05;;
20593;SDS011;10455;48.732;10.266;2023-05-23T17:49:18;7.28;;;5.63;;
20593;SDS011;10455;48.732;10.266;2023-05-23T17:54:20;5.78;;;5.25;;
20593;SDS011;10455;48.732;10.266;2023-05-23T17:59:23;5.60;;;5.10;;
20593;SDS011;10455;48.732;10.266;2023-05-23T18:04:26;5.70;;;5.18;;
20593;SDS011;10455;48.732;10.266;2023-05-23T18:09:28;5.45;;;5.03;;
20593;SDS011;10455;48.732;10.266;2023-05-23T18:14:32;6.25;;;5.75;;
20593;SDS011;10455;48.732;10.266;2023-05-23T18:19:34;6.50;;;6.00;;
20593;SDS011;10455;48.732;10.266;2023-05-23T18:24:36;5.05;;;4.53;;
20593;SDS011;10455;48.732;10.266;2023-05-23T18:29:40;6.78;;;4.97;;
20593;SDS011;10455;48.732;10.266;2023-05-23T18:34:42;5.55;;;5.07;;
20593;SDS011;10455;48.732;10.266;2023-05-23T18:39:44;7.10;;;6.38;;
20593;SDS011;10455;48.732;10.266;2023-05-23T18:44:48;5.15;;;4.65;;
20593;SDS011;10455;48.732;10.266;2023-05-23T18:49:50;4.95;;;4.55;;
20593;SDS011;10455;48.732;10.266;2023-05-23T18:54:52;4.65;;;4.07;;
20593;SDS011;10455;48.732;10.266;2023-05-23T18:59:56;8.95;;;8.18;;
20593;SDS011;10455;48.732;10.266;2023-05-23T19:04:57;6.75;;;6.20;;
20593;SDS011;10455;48.732;10.266;2023-05-23T19:09:59;5.28;;;4.82;;
20593;SDS011;10455;48.732;10.266;2023-05-23T19:15:03;4.95;;;4.50;;
20593;SDS011;10455;48.732;10.266;2023-05-23T19:20:06;4.22;;;3.80;;
20593;SDS011;10455;48.732;10.266;2023-05-23T19:25:08;4.53;;;4.13;;
20593;SDS011;10455;48.732;10.266;2023-05-23T19:30:12;4.65;;;4.25;;
20593;SDS011;10455;48.732;10.266;2023-05-23T19:35:14;5.65;;;4.85;;
20593;SDS011;10455;48.732;10.266;2023-05-23T19:40:16;5.10;;;4.70;;
20593;SDS011;10455;48.732;10.266;2023-05-23T19:45:21;5.20;;;4.80;;
20593;SDS011;10455;48.732;10.266;2023-05-23T19:50:23;5.70;;;5.20;;
20593;SDS011;10455;48.732;10.266;2023-05-23T19:55:25;6.10;;;4.97;;
20593;SDS011;10455;48.732;10.266;2023-05-23T20:00:29;5.17;;;4.67;;
20593;SDS011;10455;48.732;10.266;2023-05-23T20:05:31;5.63;;;5.13;;
20593;SDS011;10455;48.732;10.266;2023-05-23T20:10:32;4.97;;;4.60;;
20593;SDS011;10455;48.732;10.266;2023-05-23T20:15:36;4.88;;;4.47;;
20593;SDS011;10455;48.732;10.266;2023-05-23T20:20:38;5.25;;;4.85;;
20593;SDS011;10455;48.732;10.266;2023-05-23T20:25:40;5.20;;;4.78;;
20593;SDS011;10455;48.732;10.266;2023-05-23T20:30:43;6.47;;;5.80;;
20593;SDS011;10455;48.732;10.266;2023-05-23T20:35:45;8.27;;;7.47;;
20593;SDS011;10455;48.732;10.266;2023-05-23T20:40:47;5.75;;;5.25;;
20593;SDS011;10455;48.732;10.266;2023-05-23T20:45:51;5.60;;;5.13;;
20593;SDS011;10455;48.732;10.266;2023-05-23T20:50:53;6.00;;;5.60;;
20593;SDS011;10455;48.732;10.266;2023-05-23T20:55:56;6.30;;;5.80;;
20593;SDS011;10455;48.732;10.266;2023-05-23T21:00:59;5.93;;;5.47;;
20593;SDS011;10455;48.732;10.266;2023-05-23T21:06:01;6.45;;;5.95;;
20593;SDS011;10455;48.732;10.266;2023-05-23T21:11:03;7.10;;;6.50;;
20593;SDS011;10455;48.732;10.266;2023-05-23T21:16:06;7.30;;;6.70;;
20593;SDS011;10455;48.732;10.266;2023-05-23T21:21:11;7.30;;;6.70;;
20593;SDS011;10455;48.732;10.266;2023-05-23T21:26:13;7.67;;;7.07;;
20593;SDS011;10455;48.732;10.266;2023-05-23T21:31:16;7.87;;;7.27;;
20593;SDS011;10455;48.732;10.266;2023-05-23T21:36:18;8.10;;;7.40;;
20593;SDS011;10455;48.732;10.266;2023-05-23T21:41:20;7.67;;;6.97;;
20593;SDS011;10455;48.732;10.266;2023-05-23T21:46:26;8.13;;;7.40;;
20593;SDS011;10455;48.732;10.266;2023-05-23T21:51:28;7.90;;;7.30;;
20593;SDS011;10455;48.732;10.266;2023-05-23T21:56:30;8.17;;;7.47;;
20593;SDS011;10455;48.732;10.266;2023-05-23T22:01:33;9.60;;;8.63;;
20593;SDS011;10455;48.732;10.266;2023-05-23T22:06:35;9.57;;;8.67;;
20593;SDS011;10455;48.732;10.266;2023-05-23T22:11:37;9.80;;;8.80;;
20593;SDS011;10455;48.732;10.266;2023-05-23T22:16:41;10.50;;;9.57;;
20593;SDS011;10455;48.732;10.266;2023-05-23T22:21:42;10.63;;;9.73;;
20593;SDS011;10455;48.732;10.266;2023-05-23T22:26:44;12.47;;;11.30;;
20593;SDS011;10455;48.732;10.266;2023-05-23T22:31:48;12.97;;;11.73;;
20593;SDS011;10455;48.732;10.266;2023-05-23T22:36:49;13.93;;;12.73;;
20593;SDS011;10455;48.732;10.266;2023-05-23T22:41:52;12.83;;;11.63;;
20593;SDS011;10455;48.732;10.266;2023-05-23T22:46:55;14.47;;;13.13;;
20593;SDS011;10455;48.732;10.266;2023-05-23T22:51:57;15.20;;;13.73;;
20593;SDS011;10455;48.732;10.266;2023-05-23T22:56:59;14.90;;;13.50;;
20593;SDS011;10455;48.732;10.266;2023-05-23T23:02:03;15.10;;;13.60;;
20593;SDS011;10455;48.732;10.266;2023-05-23T23:07:05;15.53;;;13.93;;
20593;SDS011;10455;48.732;10.266;2023-05-23T23:12:07;15.73;;;14.13;;
20593;SDS011;10455;48.732;10.266;2023-05-23T23:17:11;16.50;;;14.90;;
20593;SDS011;10455;48.732;10.266;2023-05-23T23:22:13;15.57;;;13.60;;
20593;SDS011;10455;48.732;10.266;2023-05-23T23:27:15;14.20;;;12.70;;
20593;SDS011;10455;48.732;10.266;2023-05-23T23:32:19;13.90;;;12.23;;
20593;SDS011;10455;48.732;10.266;2023-05-23T23:37:20;13.13;;;11.73;;
20593;SDS011;10455;48.732;10.266;2023-05-23T23:42:22;13.20;;;11.20;;
20593;SDS011;10455;48.732;10.266;2023-05-23T23:47:25;13.27;;;11.57;;
20593;SDS011;10455;48.732;10.266;2023-05-23T23:52:27;13.37;;;11.87;;
20593;SDS011;10455;48.732;10.266;2023-05-23T23:57:29;13.57;;;11.03;;
